Time;durP1;ratioP1;P1;durP2;ratioP2;P2;SDS_P1;SDS_P2;PMS_P1;PMS_P2;Temp;Humidity;BMP_temperature;BMP_pressure;BME280_temperature;BME280_humidity;BME280_pressure;Samples;Min_cycle;Max_cycle;Signal;HPM_P1;HPM_P2
2023/02/01 00:01:39;;;;;;;19.38;4.30;;;5.40;99.90;;;;;;5034558;28;20048;-73
2023/02/01 00:04:05;;;;;;;21.70;4.00;;;5.40;99.90;;;;;;5018588;28;20045;-75
2023/02/01 00:06:32;;;;;;;21.85;3.55;;;5.40;99.90;;;;;;5034574;28;20060;-75
2023/02/01 00:08:59;;;;;;;26.20;4.80;;;5.50;99.90;;;;;;5050000;28;20049;-76
2023/02/01 00:11:25;;;;;;;25.07;3.93;;;5.50;99.90;;;;;;5034748;28;20053;-75
2023/02/01 00:13:51;;;;;;;21.92;2.70;;;5.50;99.90;;;;;;5050415;28;20048;-75
2023/02/01 00:16:19;;;;;;;23.65;4.15;;;5.50;99.90;;;;;;5034942;28;20048;-74
2023/02/01 00:18:45;;;;;;;20.83;4.28;;;5.40;99.90;;;;;;5028913;28;20147;-74
2023/02/01 00:21:14;;;;;;;27.10;3.97;;;5.40;99.90;;;;;;5068493;28;20469;-76
2023/02/01 00:23:40;;;;;;;20.83;3.67;;;5.40;99.90;;;;;;5044374;28;20359;-75
2023/02/01 00:26:07;;;;;;;24.45;3.90;;;5.40;99.90;;;;;;5033844;28;20083;-76
2023/02/01 00:28:33;;;;;;;16.70;3.33;;;5.40;99.90;;;;;;5031711;28;20045;-75
2023/02/01 00:30:59;;;;;;;18.85;3.35;;;5.40;99.90;;;;;;5014933;28;20128;-75
2023/02/01 00:33:25;;;;;;;23.02;3.40;;;5.30;99.90;;;;;;4998817;28;20053;-75
2023/02/01 00:35:51;;;;;;;18.92;3.45;;;5.30;99.90;;;;;;5049367;28;20394;-75
2023/02/01 00:38:17;;;;;;;22.33;3.45;;;5.40;99.90;;;;;;5071542;28;20080;-76
2023/02/01 00:40:42;;;;;;;21.13;3.47;;;5.40;99.90;;;;;;5028601;28;20068;-75
2023/02/01 00:43:08;;;;;;;20.17;3.85;;;5.30;99.90;;;;;;5018567;28;20077;-76
2023/02/01 00:45:34;;;;;;;23.98;3.33;;;5.30;99.90;;;;;;5043852;28;20049;-75
2023/02/01 00:48:00;;;;;;;18.10;3.50;;;5.30;99.90;;;;;;5050819;28;20059;-75
2023/02/01 00:50:25;;;;;;;27.10;4.53;;;5.30;99.90;;;;;;5034526;28;20074;-76
2023/02/01 00:52:51;;;;;;;18.30;3.75;;;5.30;99.90;;;;;;5034988;28;20076;-76
2023/02/01 00:55:17;;;;;;;23.13;4.35;;;5.30;99.90;;;;;;5049572;28;20045;-76
2023/02/01 00:57:43;;;;;;;26.58;3.95;;;5.30;99.90;;;;;;5033868;28;20052;-75
2023/02/01 01:00:12;;;;;;;22.02;3.95;;;5.30;99.90;;;;;;5054217;28;20076;-76
2023/02/01 01:02:38;;;;;;;20.15;3.78;;;5.30;99.90;;;;;;5054058;28;20063;-74
2023/02/01 01:05:04;;;;;;;23.75;4.68;;;5.40;99.90;;;;;;5019192;28;20139;-75
2023/02/01 01:07:41;;;;;;;30.95;4.57;;;5.40;99.90;;;;;;5036721;28;20041;-75
2023/02/01 01:10:07;;;;;;;22.10;4.00;;;5.30;99.90;;;;;;5019976;28;20045;-75
2023/02/01 01:12:33;;;;;;;15.43;3.78;;;5.30;99.90;;;;;;5052581;28;20053;-75
2023/02/01 01:14:58;;;;;;;19.67;4.03;;;5.20;99.90;;;;;;5054345;28;20075;-76
2023/02/01 01:17:24;;;;;;;23.77;4.20;;;5.20;99.90;;;;;;5054116;28;20037;-74
2023/02/01 01:19:50;;;;;;;27.77;4.10;;;5.20;99.90;;;;;;5054365;28;20071;-75
2023/02/01 01:22:16;;;;;;;19.88;3.60;;;5.10;99.90;;;;;;5047775;28;20135;-75
2023/02/01 01:24:41;;;;;;;20.20;3.47;;;5.10;99.90;;;;;;5054564;28;20462;-76
2023/02/01 01:27:07;;;;;;;19.55;3.75;;;5.10;99.90;;;;;;5054163;28;20045;-75
2023/02/01 01:29:33;;;;;;;22.65;3.65;;;5.10;99.90;;;;;;5004099;28;20041;-76
2023/02/01 01:32:00;;;;;;;20.17;4.07;;;5.10;99.90;;;;;;5037528;28;20122;-77
2023/02/01 01:34:26;;;;;;;17.40;4.07;;;5.10;99.90;;;;;;5028186;28;20051;-77
2023/02/01 01:36:51;;;;;;;19.85;4.03;;;5.10;99.90;;;;;;5054009;28;20037;-75
2023/02/01 01:39:20;;;;;;;29.80;4.68;;;5.10;99.90;;;;;;5005470;28;20060;-77
2023/02/01 01:41:46;;;;;;;29.20;5.35;;;5.00;99.90;;;;;;5036463;28;20126;-77
2023/02/01 01:44:52;;;;;;;25.13;4.15;;;5.10;99.90;;;;;;5048678;28;20107;-76
2023/02/01 01:47:18;;;;;;;18.40;3.08;;;5.10;99.90;;;;;;5024774;28;20057;-76
2023/02/01 01:49:45;;;;;;;21.15;4.78;;;5.10;99.90;;;;;;5054230;28;20045;-75
2023/02/01 01:52:10;;;;;;;26.70;4.63;;;5.10;99.90;;;;;;5054416;28;20140;-76
2023/02/01 01:54:42;;;;;;;21.80;3.60;;;5.10;99.90;;;;;;5034607;28;20128;-75
2023/02/01 01:57:11;;;;;;;26.52;4.82;;;5.10;99.90;;;;;;5047823;28;20521;-75
2023/02/01 01:59:38;;;;;;;25.58;4.18;;;5.10;99.90;;;;;;5054838;28;20052;-75
2023/02/01 02:02:05;;;;;;;24.38;4.50;;;5.10;99.90;;;;;;5035595;28;20084;-75
2023/02/01 02:04:32;;;;;;;30.40;4.90;;;5.10;99.90;;;;;;5037624;28;20054;-75
2023/02/01 02:07:00;;;;;;;32.38;4.95;;;5.10;99.90;;;;;;5057133;28;20048;-75
2023/02/01 02:09:26;;;;;;;23.67;4.07;;;5.10;99.90;;;;;;5042960;28;20041;-75
2023/02/01 02:11:52;;;;;;;21.08;3.85;;;5.00;99.90;;;;;;5027594;28;20061;-74
2023/02/01 02:14:19;;;;;;;24.23;4.15;;;5.00;99.90;;;;;;5053721;28;20051;-76
2023/02/01 02:17:06;;;;;;;20.90;3.90;;;5.00;99.90;;;;;;5036282;28;20048;-76
2023/02/01 02:19:53;;;;;;;18.48;3.50;;;5.00;99.90;;;;;;5056728;28;20045;-76
2023/02/01 02:22:44;;;;;;;32.50;4.23;;;5.00;99.90;;;;;;5032847;28;20104;-76
2023/02/01 02:25:21;;;;;;;25.23;4.15;;;5.00;99.90;;;;;;5045748;28;20048;-77
2023/02/01 02:28:13;;;;;;;23.80;3.95;;;5.00;99.90;;;;;;5020723;28;20088;-76
2023/02/01 02:30:50;;;;;;;21.35;3.85;;;4.90;99.90;;;;;;5041994;28;20056;-75
2023/02/01 02:33:38;;;;;;;26.42;3.60;;;5.00;99.90;;;;;;5048952;28;20045;-75
2023/02/01 02:36:33;;;;;;;22.58;3.58;;;4.90;99.90;;;;;;5049123;28;20103;-75
2023/02/01 02:39:13;;;;;;;20.52;3.80;;;5.00;99.90;;;;;;5027686;28;20041;-75
2023/02/01 02:48:18;;;;;;;24.45;4.38;;;4.90;99.90;;;;;;5052349;28;20075;-75
2023/02/01 03:05:05;;;;;;;22.25;4.60;;;4.90;99.90;;;;;;5039242;28;20116;-75
2023/02/01 03:07:49;;;;;;;23.60;4.10;;;4.90;99.90;;;;;;5053154;28;20442;-77
2023/02/01 03:10:29;;;;;;;35.35;5.32;;;4.90;99.90;;;;;;5034395;28;20306;-76
2023/02/01 03:12:59;;;;;;;25.65;5.07;;;5.00;99.90;;;;;;5062591;28;20064;-75
2023/02/01 03:15:33;;;;;;;22.08;3.90;;;4.90;99.90;;;;;;5052135;28;20037;-74
2023/02/01 03:17:58;;;;;;;23.73;4.63;;;5.00;99.90;;;;;;5045922;28;20083;-74
2023/02/01 03:20:25;;;;;;;23.17;4.50;;;5.00;99.90;;;;;;5038384;28;20091;-75
2023/02/01 03:22:52;;;;;;;27.67;3.83;;;4.90;99.90;;;;;;5018996;28;20048;-76
2023/02/01 03:25:21;;;;;;;26.52;3.92;;;5.00;99.90;;;;;;5030401;28;20052;-76
2023/02/01 03:27:53;;;;;;;26.60;4.50;;;4.90;99.90;;;;;;5033608;28;20118;-76
2023/02/01 03:30:25;;;;;;;22.88;4.47;;;5.00;99.90;;;;;;5019680;28;20076;-75
2023/02/01 03:32:59;;;;;;;21.25;4.25;;;4.90;99.90;;;;;;5052768;28;20053;-75
2023/02/01 03:35:54;;;;;;;26.13;4.15;;;4.90;99.90;;;;;;5021489;28;20047;-77
2023/02/01 03:38:54;;;;;;;24.15;4.20;;;5.00;99.90;;;;;;5042000;28;20465;-76
2023/02/01 03:41:43;;;;;;;22.02;4.38;;;4.90;99.90;;;;;;5033711;28;20052;-75
2023/02/01 03:44:12;;;;;;;19.58;4.10;;;5.00;99.90;;;;;;5083666;28;20051;-76
2023/02/01 03:46:47;;;;;;;16.00;3.88;;;5.00;99.90;;;;;;5035856;28;20044;-75
2023/02/01 03:49:16;;;;;;;23.40;4.60;;;5.00;99.90;;;;;;5035570;28;20091;-74
2023/02/01 03:51:42;;;;;;;21.63;3.97;;;5.00;99.90;;;;;;5052217;28;20049;-74
2023/02/01 03:54:10;;;;;;;19.90;4.03;;;5.00;99.90;;;;;;5035787;28;20041;-76
2023/02/01 03:56:37;;;;;;;27.23;5.07;;;5.00;99.90;;;;;;5031420;28;20531;-74
2023/02/01 03:59:02;;;;;;;22.70;4.47;;;5.00;99.90;;;;;;5035171;28;20052;-76
2023/02/01 04:01:30;;;;;;;27.33;5.30;;;5.10;99.90;;;;;;5030960;28;20051;-75
2023/02/01 04:03:59;;;;;;;18.27;5.30;;;5.00;99.90;;;;;;5035119;28;20043;-74
2023/02/01 04:06:25;;;;;;;25.48;4.25;;;5.00;99.90;;;;;;5015858;28;20892;-74
2023/02/01 04:08:52;;;;;;;23.50;4.07;;;5.10;99.90;;;;;;5032796;28;20041;-75
2023/02/01 04:11:21;;;;;;;15.60;3.90;;;5.10;99.90;;;;;;5022279;28;20490;-74
2023/02/01 04:13:47;;;;;;;22.27;4.10;;;5.00;99.90;;;;;;5049673;28;20052;-74
2023/02/01 04:16:13;;;;;;;25.50;4.65;;;5.00;99.90;;;;;;4997005;28;20132;-74
2023/02/01 04:18:39;;;;;;;26.42;4.72;;;5.00;99.90;;;;;;5011551;28;20441;-74
2023/02/01 04:21:05;;;;;;;27.15;5.30;;;5.00;99.90;;;;;;5038363;28;20033;-74
2023/02/01 04:23:33;;;;;;;22.60;4.50;;;5.00;99.90;;;;;;5053991;28;20611;-75
2023/02/01 04:26:01;;;;;;;16.80;4.13;;;5.00;99.90;;;;;;5013788;28;20053;-75
2023/02/01 04:28:27;;;;;;;24.35;4.40;;;5.00;99.90;;;;;;5031596;28;20128;-75
2023/02/01 04:30:53;;;;;;;16.83;4.72;;;5.00;99.90;;;;;;5032358;28;20053;-75
2023/02/01 04:33:18;;;;;;;24.42;4.57;;;5.00;99.90;;;;;;5031337;28;20111;-75
2023/02/01 04:35:44;;;;;;;21.08;4.75;;;5.00;99.90;;;;;;5053997;28;20048;-74
2023/02/01 04:38:10;;;;;;;24.15;4.55;;;5.00;99.90;;;;;;5052534;28;20045;-75
2023/02/01 04:40:37;;;;;;;25.65;4.40;;;5.00;99.90;;;;;;5041513;28;20068;-74
2023/02/01 04:43:03;;;;;;;28.67;4.68;;;5.00;99.90;;;;;;5005731;28;20428;-75
2023/02/01 04:45:30;;;;;;;25.58;4.90;;;5.00;99.90;;;;;;5036491;28;20434;-74
2023/02/01 04:47:56;;;;;;;35.60;4.88;;;5.00;99.90;;;;;;5054231;28;20143;-74
2023/02/01 04:50:23;;;;;;;20.27;4.55;;;5.00;99.90;;;;;;5035018;28;20128;-76
2023/02/01 04:52:49;;;;;;;21.02;4.63;;;5.00;99.90;;;;;;5036319;28;20059;-73
2023/02/01 04:55:15;;;;;;;19.27;4.20;;;5.00;99.90;;;;;;5036950;28;20037;-75
2023/02/01 04:57:41;;;;;;;23.23;4.20;;;5.00;99.90;;;;;;5015236;28;20040;-74
2023/02/01 05:00:08;;;;;;;17.05;4.57;;;4.90;99.90;;;;;;5019544;28;20041;-74
2023/02/01 05:02:34;;;;;;;20.10;5.07;;;4.90;99.90;;;;;;5051587;28;20056;-74
2023/02/01 05:05:01;;;;;;;25.30;4.93;;;5.00;99.90;;;;;;5037066;28;20044;-74
2023/02/01 05:07:26;;;;;;;24.92;4.75;;;5.00;99.90;;;;;;5036519;28;20719;-76
2023/02/01 05:09:52;;;;;;;21.88;5.32;;;4.90;99.90;;;;;;5033254;28;20582;-75
2023/02/01 05:15:02;;;;;;;24.17;5.28;;;4.90;99.90;;;;;;5051556;28;20422;-76
2023/02/01 05:17:28;;;;;;;22.30;4.47;;;5.00;99.90;;;;;;5036414;28;20073;-76
2023/02/01 05:19:53;;;;;;;21.92;4.75;;;5.00;99.90;;;;;;5038614;28;20055;-74
2023/02/01 05:22:19;;;;;;;27.67;5.72;;;5.00;99.90;;;;;;5037490;28;20730;-75
2023/02/01 05:24:45;;;;;;;22.58;5.65;;;5.10;99.90;;;;;;5038009;28;20072;-76
2023/02/01 05:27:11;;;;;;;28.38;5.38;;;5.10;99.90;;;;;;5037279;28;20067;-76
2023/02/01 05:29:37;;;;;;;25.60;5.07;;;5.10;99.90;;;;;;5054036;28;20045;-75
2023/02/01 05:32:03;;;;;;;22.90;4.47;;;5.20;99.90;;;;;;5054502;28;20063;-76
2023/02/01 05:34:29;;;;;;;21.60;4.50;;;5.10;99.90;;;;;;5048877;28;20041;-75
2023/02/01 05:36:55;;;;;;;26.85;4.35;;;5.10;99.90;;;;;;5054164;28;20051;-73
2023/02/01 05:39:20;;;;;;;23.15;4.90;;;5.00;99.90;;;;;;5033086;28;20045;-74
2023/02/01 05:41:46;;;;;;;20.58;4.72;;;5.00;99.90;;;;;;5032065;28;20106;-75
2023/02/01 05:44:12;;;;;;;26.60;5.57;;;4.80;99.90;;;;;;5000703;28;20421;-75
2023/02/01 05:46:38;;;;;;;26.83;5.82;;;4.70;99.90;;;;;;5033145;28;20075;-74
2023/02/01 05:49:04;;;;;;;28.05;4.95;;;4.60;99.90;;;;;;5033033;28;20052;-74
2023/02/01 05:51:30;;;;;;;24.30;5.28;;;4.60;99.90;;;;;;5019762;28;20041;-74
2023/02/01 05:53:55;;;;;;;29.02;5.95;;;4.60;99.90;;;;;;5036233;28;20102;-74
2023/02/01 05:56:21;;;;;;;32.10;5.63;;;4.70;99.90;;;;;;5032504;28;20125;-74
2023/02/01 05:58:47;;;;;;;18.20;4.38;;;4.50;99.90;;;;;;5041743;28;20446;-74
2023/02/01 06:01:13;;;;;;;20.38;5.07;;;4.60;99.90;;;;;;5020574;28;20044;-75
2023/02/01 06:03:38;;;;;;;17.60;4.72;;;4.60;99.90;;;;;;5036395;28;20496;-74
2023/02/01 06:06:04;;;;;;;21.92;5.22;;;4.50;99.90;;;;;;5033676;28;20048;-75
2023/02/01 06:08:30;;;;;;;27.45;6.53;;;4.50;99.90;;;;;;5052211;28;20492;-73
2023/02/01 06:11:00;;;;;;;20.98;5.60;;;4.40;99.90;;;;;;5032878;28;20045;-75
2023/02/01 06:13:26;;;;;;;29.00;5.90;;;4.40;99.90;;;;;;5059349;28;20053;-74
2023/02/01 06:15:52;;;;;;;19.92;5.13;;;4.40;99.90;;;;;;5050402;28;20041;-74
2023/02/01 06:18:18;;;;;;;18.30;5.75;;;4.50;99.90;;;;;;5045643;28;20131;-74
2023/02/01 06:20:55;;;;;;;25.77;5.93;;;4.50;99.90;;;;;;5035638;28;20049;-74
2023/02/01 06:23:23;;;;;;;26.73;5.90;;;4.40;99.90;;;;;;4999634;28;20057;-75
2023/02/01 06:25:53;;;;;;;17.30;5.03;;;4.50;99.90;;;;;;5036276;28;20102;-75
2023/02/01 06:28:18;;;;;;;24.15;5.53;;;4.50;99.90;;;;;;5057076;28;20044;-75
2023/02/01 06:30:45;;;;;;;17.95;5.15;;;4.50;99.90;;;;;;5051745;28;20417;-76
2023/02/01 06:33:14;;;;;;;18.73;4.30;;;4.50;99.90;;;;;;5046383;28;20037;-75
2023/02/01 06:35:43;;;;;;;20.50;4.57;;;4.50;99.90;;;;;;5050243;28;20045;-75
2023/02/01 06:38:12;;;;;;;26.33;5.22;;;4.60;99.90;;;;;;5056210;28;20495;-74
2023/02/01 06:40:39;;;;;;;20.05;6.10;;;4.60;99.90;;;;;;5035439;28;20047;-76
2023/02/01 06:43:04;;;;;;;14.60;3.92;;;4.70;99.90;;;;;;5034949;28;20105;-76
2023/02/01 06:45:30;;;;;;;24.70;4.30;;;4.70;99.90;;;;;;5033039;28;20132;-77
2023/02/01 06:47:56;;;;;;;17.10;3.72;;;4.80;99.90;;;;;;5014657;28;20132;-77
2023/02/01 06:50:22;;;;;;;19.88;4.60;;;4.80;99.90;;;;;;5037149;28;20674;-78
2023/02/01 06:52:48;;;;;;;23.88;4.68;;;4.80;99.90;;;;;;5052649;28;20060;-75
2023/02/01 06:55:14;;;;;;;18.75;5.22;;;4.80;99.90;;;;;;5050340;28;20044;-76
2023/02/01 06:57:40;;;;;;;25.85;4.53;;;4.70;99.90;;;;;;5024246;28;20041;-74
2023/02/01 07:00:06;;;;;;;24.73;5.57;;;4.70;99.90;;;;;;5027149;28;20037;-73
2023/02/01 07:02:32;;;;;;;17.42;4.82;;;4.60;99.90;;;;;;5051453;28;20458;-74
2023/02/01 07:04:59;;;;;;;20.00;4.18;;;4.60;99.90;;;;;;5001726;28;20546;-74
2023/02/01 07:07:24;;;;;;;23.15;5.22;;;4.60;99.90;;;;;;5046621;28;20049;-74
2023/02/01 07:09:50;;;;;;;13.77;3.95;;;4.60;99.90;;;;;;5051597;28;20049;-74
2023/02/01 07:12:16;;;;;;;18.88;3.78;;;4.70;99.90;;;;;;5033489;28;20078;-74
2023/02/01 07:14:42;;;;;;;22.25;4.55;;;4.70;99.90;;;;;;5034871;28;20228;-75
2023/02/01 07:17:07;;;;;;;17.88;3.90;;;4.80;99.90;;;;;;5049205;28;20071;-74
2023/02/01 07:19:34;;;;;;;12.27;3.90;;;4.80;99.90;;;;;;5033198;28;20131;-74
2023/02/01 07:21:59;;;;;;;13.50;3.63;;;4.70;99.90;;;;;;5037191;28;20060;-74
2023/02/01 07:24:25;;;;;;;19.40;4.07;;;4.80;99.90;;;;;;5052227;28;20048;-73
2023/02/01 07:26:54;;;;;;;15.65;3.30;;;4.70;99.90;;;;;;5050640;28;20074;-74
2023/02/01 07:29:28;;;;;;;13.90;4.45;;;4.70;99.90;;;;;;5015558;28;20184;-73
2023/02/01 07:31:54;;;;;;;12.40;3.53;;;4.70;99.90;;;;;;5014460;28;20071;-75
2023/02/01 07:34:20;;;;;;;12.40;3.40;;;4.80;99.90;;;;;;5041955;28;20729;-75
2023/02/01 07:36:46;;;;;;;12.95;3.50;;;4.70;99.90;;;;;;5031513;28;20041;-75
2023/02/01 07:39:11;;;;;;;12.55;2.70;;;4.70;99.90;;;;;;5023526;28;20331;-75
2023/02/01 07:41:37;;;;;;;11.25;3.47;;;4.80;99.90;;;;;;5049908;28;20048;-75
2023/02/01 07:44:03;;;;;;;17.30;3.70;;;4.80;99.90;;;;;;5035964;28;20045;-75
2023/02/01 07:46:29;;;;;;;16.30;3.75;;;4.80;99.90;;;;;;5018585;28;20055;-75
2023/02/01 07:48:55;;;;;;;11.00;3.42;;;4.80;99.90;;;;;;5034656;28;20072;-75
2023/02/01 07:51:21;;;;;;;14.23;3.30;;;4.80;99.90;;;;;;5051227;28;20488;-75
2023/02/01 07:53:46;;;;;;;15.60;3.15;;;4.80;99.90;;;;;;5019003;28;20049;-75
2023/02/01 07:56:17;;;;;;;13.60;3.42;;;4.80;99.90;;;;;;5052015;28;20069;-75
2023/02/01 07:58:43;;;;;;;15.13;3.45;;;4.90;99.90;;;;;;5035490;28;20103;-75
2023/02/01 08:01:20;;;;;;;18.63;3.83;;;4.80;99.90;;;;;;5016673;28;20045;-76
2023/02/01 08:04:09;;;;;;;18.33;4.07;;;4.80;99.90;;;;;;5049283;28;20045;-74
2023/02/01 08:06:36;;;;;;;15.60;2.83;;;4.90;99.90;;;;;;5050094;28;20044;-76
2023/02/01 08:09:03;;;;;;;19.20;3.85;;;4.90;99.90;;;;;;5049774;28;20036;-74
2023/02/01 08:11:29;;;;;;;17.67;4.50;;;4.90;99.90;;;;;;5045296;28;20053;-74
2023/02/01 08:13:54;;;;;;;14.07;3.25;;;5.00;99.90;;;;;;5034032;28;20059;-73
2023/02/01 08:16:21;;;;;;;21.50;3.53;;;5.00;99.90;;;;;;5050860;28;20124;-73
2023/02/01 08:18:47;;;;;;;14.18;3.25;;;4.90;99.90;;;;;;5032531;28;20044;-74
2023/02/01 08:21:21;;;;;;;21.27;4.32;;;4.90;99.90;;;;;;5055320;28;20041;-74
2023/02/01 08:23:48;;;;;;;24.02;4.07;;;4.90;99.90;;;;;;5030088;28;20056;-74
2023/02/01 08:26:17;;;;;;;21.23;5.57;;;4.80;99.90;;;;;;5041300;28;20123;-73
2023/02/01 08:28:54;;;;;;;20.13;4.28;;;4.90;99.90;;;;;;5050313;28;20052;-74
2023/02/01 08:31:22;;;;;;;24.45;4.13;;;4.90;99.90;;;;;;5045915;28;20080;-73
2023/02/01 08:33:55;;;;;;;15.25;3.72;;;4.80;99.90;;;;;;5035375;28;20505;-75
2023/02/01 08:36:22;;;;;;;16.75;3.97;;;4.90;99.90;;;;;;5017245;28;20369;-74
2023/02/01 08:38:47;;;;;;;24.15;4.22;;;4.90;99.90;;;;;;5033561;28;20040;-74
2023/02/01 08:41:15;;;;;;;22.67;4.60;;;4.90;99.90;;;;;;5016983;28;20353;-73
2023/02/01 08:43:41;;;;;;;24.50;4.18;;;4.90;99.90;;;;;;5049338;28;20053;-73
2023/02/01 08:46:07;;;;;;;23.10;4.63;;;4.90;99.90;;;;;;5027030;28;20052;-73
2023/02/01 08:48:34;;;;;;;22.13;4.38;;;4.90;99.90;;;;;;5017084;28;20111;-74
2023/02/01 08:51:08;;;;;;;24.33;4.78;;;4.90;99.90;;;;;;5036088;28;20472;-73
2023/02/01 08:53:34;;;;;;;22.95;4.47;;;4.90;99.90;;;;;;5033853;28;20431;-74
2023/02/01 08:56:00;;;;;;;20.95;5.13;;;4.80;99.90;;;;;;5033677;28;20040;-74
2023/02/01 08:58:26;;;;;;;22.73;4.80;;;4.60;99.90;;;;;;5030042;28;20111;-73
2023/02/01 09:00:52;;;;;;;22.45;4.65;;;4.40;99.90;;;;;;4996602;28;20049;-74
2023/02/01 09:03:18;;;;;;;20.92;4.40;;;4.50;99.90;;;;;;5047150;28;20057;-73
2023/02/01 09:05:44;;;;;;;16.98;4.20;;;4.50;99.90;;;;;;5029011;28;20639;-74
2023/02/01 09:08:13;;;;;;;23.33;4.22;;;4.50;99.90;;;;;;5026902;28;20284;-75
2023/02/01 09:10:39;;;;;;;13.45;3.10;;;4.50;99.90;;;;;;4998662;28;20045;-77
2023/02/01 09:13:05;;;;;;;13.85;3.40;;;4.60;99.90;;;;;;5014415;28;20470;-77
2023/02/01 09:15:31;;;;;;;15.80;2.88;;;4.70;99.90;;;;;;5026945;28;20037;-77
2023/02/01 09:17:57;;;;;;;23.83;3.67;;;4.80;99.90;;;;;;5013645;28;20041;-77
2023/02/01 09:20:23;;;;;;;13.38;3.58;;;4.70;99.90;;;;;;5032336;28;20072;-76
2023/02/01 09:22:51;;;;;;;20.92;3.83;;;4.80;99.90;;;;;;5033768;28;20044;-76
2023/02/01 09:25:17;;;;;;;20.95;3.40;;;4.80;99.90;;;;;;5050504;28;20131;-77
2023/02/01 09:27:43;;;;;;;21.30;3.42;;;4.80;99.90;;;;;;5031134;28;20390;-77
2023/02/01 09:30:09;;;;;;;14.50;3.58;;;4.90;99.90;;;;;;5031903;28;20041;-77
2023/02/01 09:32:37;;;;;;;23.33;4.18;;;5.10;99.90;;;;;;5051810;28;20048;-77
2023/02/01 09:35:03;;;;;;;19.83;3.67;;;5.10;99.90;;;;;;5008930;28;20052;-77
2023/02/01 09:37:29;;;;;;;21.48;4.03;;;5.20;99.90;;;;;;5050704;28;20037;-77
2023/02/01 09:39:55;;;;;;;17.05;3.20;;;5.30;99.90;;;;;;5050181;28;20100;-77
2023/02/01 09:42:44;;;;;;;18.83;3.83;;;5.40;99.90;;;;;;5029492;28;20049;-76
2023/02/01 09:45:24;;;;;;;24.20;4.13;;;5.50;99.90;;;;;;5051791;28;20412;-77
2023/02/01 09:48:02;;;;;;;14.20;3.00;;;5.60;99.90;;;;;;5050333;28;20056;-77
2023/02/01 09:50:33;;;;;;;18.63;3.53;;;5.70;99.90;;;;;;5038120;28;20661;-77
2023/02/01 09:53:10;;;;;;;19.30;2.92;;;5.70;99.90;;;;;;5050492;28;20053;-78
2023/02/01 09:55:42;;;;;;;20.35;3.22;;;5.80;99.90;;;;;;5041433;28;20052;-78
2023/02/01 09:58:12;;;;;;;17.73;3.30;;;5.90;99.90;;;;;;5017050;28;20457;-78
2023/02/01 10:00:38;;;;;;;21.45;3.67;;;5.90;99.90;;;;;;5052812;28;20041;-78
2023/02/01 10:03:04;;;;;;;13.82;2.83;;;6.00;99.90;;;;;;5033575;28;20436;-78
2023/02/01 10:05:55;;;;;;;18.27;3.05;;;6.10;99.90;;;;;;5039094;28;20446;-78
2023/02/01 10:08:56;;;;;;;18.63;2.92;;;6.10;99.90;;;;;;5049676;28;20257;-78
2023/02/01 10:11:48;;;;;;;15.48;3.03;;;6.20;99.90;;;;;;5050850;28;20040;-78
2023/02/01 10:14:48;;;;;;;15.27;3.47;;;6.20;99.90;;;;;;5044387;28;20049;-77
2023/02/01 10:17:31;;;;;;;17.90;2.88;;;6.20;99.90;;;;;;5034526;28;20056;-77
2023/02/01 10:20:27;;;;;;;15.52;2.70;;;6.20;99.90;;;;;;5050634;28;20129;-77
2023/02/01 10:22:59;;;;;;;17.90;2.83;;;6.30;99.90;;;;;;5019408;28;20064;-77
2023/02/01 10:25:41;;;;;;;20.55;3.10;;;6.20;99.90;;;;;;5048541;28;20382;-76
2023/02/01 10:28:07;;;;;;;18.70;3.53;;;6.20;99.90;;;;;;5055031;28;20055;-78
2023/02/01 10:30:59;;;;;;;15.85;3.28;;;6.20;99.90;;;;;;5036123;28;20421;-77
2023/02/01 10:33:27;;;;;;;13.18;2.95;;;6.20;99.90;;;;;;5031267;28;20048;-77
2023/02/01 10:36:20;;;;;;;14.88;3.17;;;6.30;99.90;;;;;;5038748;28;20045;-77
2023/02/01 10:39:07;;;;;;;26.25;4.00;;;6.30;99.90;;;;;;5011577;28;20049;-76
2023/02/01 10:41:38;;;;;;;15.10;3.15;;;6.30;99.90;;;;;;5049869;28;20350;-77
2023/02/01 10:44:15;;;;;;;16.50;3.22;;;6.40;99.90;;;;;;5034090;28;20128;-77
2023/02/01 10:46:41;;;;;;;23.02;3.47;;;6.40;99.90;;;;;;5015842;28;20128;-77
2023/02/01 10:49:12;;;;;;;12.20;2.95;;;6.50;99.90;;;;;;5049654;28;20105;-76
2023/02/01 10:52:13;;;;;;;16.95;2.45;;;6.50;99.90;;;;;;5014669;28;20045;-75
2023/02/01 10:54:39;;;;;;;11.73;3.10;;;6.60;99.90;;;;;;4988165;28;20108;-76
2023/02/01 10:57:25;;;;;;;16.98;2.75;;;6.60;99.90;;;;;;5031151;28;20053;-77
2023/02/01 10:59:51;;;;;;;14.80;2.83;;;6.70;99.90;;;;;;5050681;28;20037;-78
2023/02/01 11:02:32;;;;;;;16.23;3.28;;;6.60;99.90;;;;;;5016670;28;20524;-76
2023/02/01 11:05:02;;;;;;;17.13;3.50;;;6.50;99.90;;;;;;5029151;28;20053;-77
2023/02/01 11:07:28;;;;;;;15.90;3.28;;;6.60;99.90;;;;;;5049625;28;20177;-77
2023/02/01 11:09:55;;;;;;;20.27;3.35;;;6.50;99.90;;;;;;5032583;28;20727;-77
2023/02/01 11:12:29;;;;;;;17.55;3.10;;;6.50;99.90;;;;;;4999001;28;20481;-78
2023/02/01 11:15:18;;;;;;;20.88;3.45;;;6.50;99.90;;;;;;5034636;28;20453;-77
2023/02/01 11:17:44;;;;;;;19.45;3.38;;;6.50;99.90;;;;;;5026635;28;20052;-77
2023/02/01 11:20:19;;;;;;;20.50;3.92;;;6.50;99.90;;;;;;5048989;28;20036;-77
2023/02/01 11:22:55;;;;;;;15.63;3.35;;;6.40;99.90;;;;;;5033807;28;20690;-76
2023/02/01 11:25:21;;;;;;;15.88;3.53;;;6.50;99.90;;;;;;5000775;28;20401;-78
2023/02/01 11:27:49;;;;;;;15.23;3.05;;;6.40;99.90;;;;;;5000265;28;20045;-78
2023/02/01 11:30:22;;;;;;;17.38;3.85;;;6.40;99.90;;;;;;5024989;28;20053;-76
2023/02/01 11:32:48;;;;;;;21.30;3.40;;;6.40;99.90;;;;;;5006588;28;20045;-78
2023/02/01 11:35:19;;;;;;;13.60;3.00;;;6.40;99.90;;;;;;4983603;28;20080;-76
2023/02/01 11:37:48;;;;;;;12.23;3.13;;;6.40;99.90;;;;;;5025174;28;20882;-78
2023/02/01 11:40:25;;;;;;;13.13;2.53;;;6.40;99.90;;;;;;5009201;28;20485;-77
2023/02/01 11:43:27;;;;;;;18.48;3.45;;;6.50;99.90;;;;;;5042991;28;20050;-77
2023/02/01 11:46:01;;;;;;;18.95;3.92;;;6.50;99.90;;;;;;5008872;28;20041;-77
2023/02/01 11:48:30;;;;;;;19.52;3.40;;;6.50;99.90;;;;;;5023428;28;20045;-77
2023/02/01 11:51:11;;;;;;;24.67;3.55;;;6.50;99.90;;;;;;4994894;28;20600;-78
2023/02/01 11:53:56;;;;;;;14.45;2.92;;;6.60;99.90;;;;;;5031511;28;20056;-78
2023/02/01 11:56:36;;;;;;;11.07;2.80;;;6.60;99.90;;;;;;5015798;28;20414;-77
2023/02/01 11:59:14;;;;;;;16.95;2.75;;;6.60;99.90;;;;;;5012293;28;20041;-77
2023/02/01 12:02:03;;;;;;;19.05;3.42;;;6.60;99.90;;;;;;4995773;28;20124;-77
2023/02/01 12:04:47;;;;;;;16.67;2.92;;;6.60;99.90;;;;;;5033366;28;20084;-75
2023/02/01 12:07:42;;;;;;;13.52;2.83;;;6.60;99.90;;;;;;5016252;28;20048;-76
2023/02/01 12:10:16;;;;;;;13.52;3.72;;;6.70;99.90;;;;;;5019836;28;20103;-76
2023/02/01 12:12:52;;;;;;;26.88;6.13;;;6.60;99.90;;;;;;5005570;28;20123;-77
2023/02/01 12:15:47;;;;;;;11.90;2.88;;;6.60;99.90;;;;;;5024521;28;20057;-78
2023/02/01 12:18:24;;;;;;;17.98;3.63;;;6.60;99.90;;;;;;5012891;28;20041;-77
2023/02/01 12:21:11;;;;;;;15.30;3.28;;;6.70;99.90;;;;;;5022321;28;20045;-76
2023/02/01 12:23:40;;;;;;;12.68;3.70;;;6.80;99.90;;;;;;5052734;28;20048;-77
2023/02/01 12:26:31;;;;;;;15.40;3.42;;;6.70;99.90;;;;;;5026022;28;20131;-77
2023/02/01 12:29:08;;;;;;;17.50;4.07;;;6.70;99.90;;;;;;4996407;28;20069;-77
2023/02/01 12:31:43;;;;;;;12.90;2.80;;;6.80;99.90;;;;;;5028439;28;20107;-78
2023/02/01 12:34:27;;;;;;;13.55;2.95;;;6.70;99.90;;;;;;5021014;28;20046;-77
2023/02/01 12:37:12;;;;;;;22.33;3.75;;;6.70;99.90;;;;;;5029740;28;20052;-77
2023/02/01 12:40:00;;;;;;;21.52;3.97;;;6.70;99.90;;;;;;5016527;28;20450;-77
2023/02/01 12:43:05;;;;;;;17.67;3.38;;;6.70;99.90;;;;;;5026043;28;20457;-78
2023/02/01 12:45:43;;;;;;;13.63;2.95;;;6.60;99.90;;;;;;5024927;28;20056;-76
2023/02/01 12:48:29;;;;;;;16.55;2.83;;;6.60;99.90;;;;;;5026047;28;20449;-76
2023/02/01 12:51:04;;;;;;;15.90;3.15;;;6.60;99.90;;;;;;5028097;28;20083;-76
2023/02/01 12:53:35;;;;;;;18.85;3.28;;;6.50;99.90;;;;;;5033224;28;20045;-77
2023/02/01 12:56:03;;;;;;;17.65;3.10;;;6.50;99.90;;;;;;5007706;28;20046;-77
2023/02/01 12:58:43;;;;;;;11.85;3.00;;;6.50;99.90;;;;;;4996809;28;20088;-76
2023/02/01 13:01:35;;;;;;;16.75;3.40;;;6.40;99.90;;;;;;5021609;28;20045;-77
2023/02/01 13:04:13;;;;;;;15.50;3.60;;;6.30;99.90;;;;;;5057643;28;20049;-76
2023/02/01 13:06:45;;;;;;;17.25;3.65;;;6.20;99.90;;;;;;5038168;28;20081;-75
2023/02/01 13:09:27;;;;;;;14.55;3.10;;;6.20;99.90;;;;;;5017773;28;20133;-75
2023/02/01 13:11:59;;;;;;;20.63;3.45;;;6.20;99.90;;;;;;4986020;28;20072;-76
2023/02/01 13:14:46;;;;;;;14.55;3.83;;;6.00;99.90;;;;;;5029530;28;20060;-76
2023/02/01 13:17:16;;;;;;;15.40;2.38;;;5.90;99.90;;;;;;5031355;28;20649;-77
2023/02/01 13:19:50;;;;;;;12.48;2.97;;;5.90;99.90;;;;;;5024310;28;20072;-76
2023/02/01 13:22:34;;;;;;;15.60;3.42;;;5.70;99.90;;;;;;5013227;28;20408;-76
2023/02/01 13:25:01;;;;;;;13.98;2.75;;;5.60;99.90;;;;;;5014301;28;20049;-77
2023/02/01 13:27:30;;;;;;;25.30;4.75;;;5.50;99.90;;;;;;5012072;28;20060;-77
2023/02/01 13:30:10;;;;;;;13.73;3.67;;;5.50;99.90;;;;;;5020954;28;20117;-77
2023/02/01 13:32:59;;;;;;;10.90;2.88;;;5.50;99.90;;;;;;5005114;28;20060;-76